createdAt,value
2018-10-02T00:00:16.261Z,7.73
2018-10-02T00:02:46.128Z,7.67
2018-10-02T00:05:16.053Z,7.58
2018-10-02T00:07:47.326Z,7.61
2018-10-02T00:12:51.615Z,7.55
2018-10-02T00:15:21.549Z,7.52
2018-10-02T00:17:51.723Z,7.49
2018-10-02T00:20:24.509Z,7.51
2018-10-02T00:22:54.580Z,7.50
2018-10-02T00:25:24.350Z,7.45
2018-10-02T00:27:54.158Z,7.38
2018-10-02T00:30:24.080Z,7.38
2018-10-02T00:32:54.013Z,7.42
2018-10-02T00:35:25.494Z,7.38
2018-10-02T00:37:55.356Z,7.30
2018-10-02T00:40:25.375Z,7.29
2018-10-02T00:42:57.676Z,7.20
2018-10-02T00:45:27.711Z,7.31
2018-10-02T00:47:57.512Z,7.29
2018-10-02T00:50:30.150Z,7.20
2018-10-02T00:53:03.018Z,7.08
2018-10-02T00:55:34.957Z,7.08
2018-10-02T00:58:08.818Z,7.06
2018-10-02T01:00:39.912Z,7.02
2018-10-02T01:03:09.850Z,7.01
2018-10-02T01:05:40.017Z,6.96
2018-10-02T01:08:15.851Z,6.95
2018-10-02T01:10:46.547Z,6.88
2018-10-02T01:13:16.659Z,6.78
2018-10-02T01:15:49.134Z,6.72
2018-10-02T01:18:18.957Z,6.68
2018-10-02T01:20:50.164Z,6.67
2018-10-02T01:23:21.333Z,6.61
2018-10-02T01:25:52.326Z,6.54
2018-10-02T01:28:24.196Z,6.53
2018-10-02T01:30:54.640Z,6.49
2018-10-02T01:33:24.654Z,6.50
2018-10-02T01:35:54.819Z,6.51
2018-10-02T01:38:24.613Z,6.50
2018-10-02T01:40:54.487Z,6.53
2018-10-02T01:43:27.486Z,6.56
2018-10-02T01:45:57.720Z,6.52
2018-10-02T01:48:27.792Z,6.51
2018-10-02T01:51:00.125Z,6.48
2018-10-02T01:53:30.066Z,6.54
2018-10-02T01:56:00.049Z,6.52
2018-10-02T01:58:29.852Z,6.50
2018-10-02T02:01:00.145Z,6.49
2018-10-02T02:03:30.018Z,6.46
2018-10-02T02:05:59.926Z,6.41
2018-10-02T02:08:29.798Z,6.34
2018-10-02T02:11:00.945Z,6.32
2018-10-02T02:13:30.887Z,6.35
2018-10-02T02:16:00.655Z,6.30
2018-10-02T02:18:30.922Z,6.28
2018-10-02T02:21:00.895Z,6.27
2018-10-02T02:23:30.734Z,6.27
2018-10-02T02:26:00.568Z,6.26
2018-10-02T02:28:30.433Z,6.15
2018-10-02T02:31:00.406Z,6.07
2018-10-02T02:33:35.355Z,5.98
2018-10-02T02:36:06.368Z,5.84
2018-10-02T02:38:36.076Z,5.84
2018-10-02T02:41:06.308Z,5.96
2018-10-02T02:43:36.035Z,5.96
2018-10-02T02:46:05.930Z,5.98
2018-10-02T02:48:47.363Z,5.92
2018-10-02T02:51:24.856Z,5.83
2018-10-02T02:53:54.674Z,5.78
2018-10-02T02:56:26.040Z,5.72
2018-10-02T02:58:56.244Z,5.62
2018-10-02T03:01:26.000Z,5.45
2018-10-02T03:03:59.777Z,5.31
2018-10-02T03:06:31.272Z,5.25
2018-10-02T03:09:01.191Z,5.15
2018-10-02T03:11:31.002Z,5.04
2018-10-02T03:14:01.127Z,4.95
2018-10-02T03:16:33.124Z,4.99
2018-10-02T03:19:03.490Z,4.91
2018-10-02T03:21:33.458Z,4.78
2018-10-02T03:24:03.335Z,4.72
2018-10-02T03:26:33.328Z,4.66
2018-10-02T03:29:03.921Z,4.52
2018-10-02T03:31:33.844Z,4.50
2018-10-02T03:34:03.895Z,4.40
2018-10-02T03:36:33.922Z,4.42
2018-10-02T03:39:04.568Z,4.35
2018-10-02T03:41:34.408Z,4.29
2018-10-02T03:44:04.426Z,4.26
2018-10-02T03:46:34.494Z,4.27
2018-10-02T03:49:04.659Z,4.27
2018-10-02T03:51:34.635Z,4.32
2018-10-02T03:54:08.305Z,4.25
2018-10-02T03:56:38.095Z,4.16
2018-10-02T03:59:08.121Z,4.10
2018-10-02T04:01:38.030Z,4.06
2018-10-02T04:04:08.835Z,4.07
2018-10-02T04:06:38.734Z,3.99
2018-10-02T04:09:11.327Z,3.96
2018-10-02T04:11:41.177Z,3.95
2018-10-02T04:14:11.054Z,3.93
2018-10-02T04:16:41.014Z,3.96
2018-10-02T04:19:11.406Z,3.98
2018-10-02T04:21:41.239Z,3.92
2018-10-02T04:24:11.388Z,3.83
2018-10-02T04:26:41.723Z,3.82
2018-10-02T04:29:11.647Z,3.83
2018-10-02T04:31:41.440Z,3.81
2018-10-02T04:34:14.902Z,3.75
2018-10-02T04:36:48.183Z,3.73
2018-10-02T04:39:18.098Z,3.83
2018-10-02T04:41:49.574Z,3.74
2018-10-02T04:44:19.531Z,3.79
2018-10-02T04:46:49.883Z,3.78
2018-10-02T04:49:19.796Z,3.75
2018-10-02T04:51:51.418Z,3.76
2018-10-02T04:54:21.871Z,3.66
2018-10-02T04:56:51.736Z,3.67
2018-10-02T04:59:21.773Z,3.66
2018-10-02T05:01:51.641Z,3.58
2018-10-02T05:04:21.707Z,3.56
2018-10-02T05:06:53.327Z,3.46
2018-10-02T05:09:23.198Z,3.41
2018-10-02T05:11:53.390Z,3.42
2018-10-02T05:14:24.041Z,3.44
2018-10-02T05:16:54.360Z,3.39
2018-10-02T05:19:24.188Z,3.44
2018-10-02T05:21:54.066Z,3.10
2018-10-02T05:24:24.085Z,3.34
2018-10-02T05:26:53.876Z,3.46
2018-10-02T05:29:23.888Z,3.45
2018-10-02T05:31:54.053Z,3.45
2018-10-02T05:34:24.249Z,3.52
2018-10-02T05:36:54.265Z,3.57
2018-10-02T05:39:24.997Z,3.56
2018-10-02T05:41:55.217Z,3.56
2018-10-02T05:44:26.323Z,3.63
2018-10-02T05:46:57.098Z,3.69
2018-10-02T05:49:27.029Z,3.63
2018-10-02T05:51:58.060Z,3.76
2018-10-02T05:54:28.489Z,3.80
2018-10-02T05:56:58.494Z,3.75
2018-10-02T05:59:28.357Z,3.75
2018-10-02T06:01:58.450Z,3.73
2018-10-02T06:04:28.628Z,3.66
2018-10-02T06:06:58.486Z,3.68
2018-10-02T06:09:28.297Z,3.71
2018-10-02T06:11:58.104Z,3.64
2018-10-02T06:14:27.829Z,3.65
2018-10-02T06:16:58.531Z,3.75
2018-10-02T06:19:29.001Z,3.72
2018-10-02T06:21:58.801Z,3.77
2018-10-02T06:24:28.731Z,3.84
2018-10-02T06:26:58.969Z,3.94
2018-10-02T06:29:29.245Z,4.13
2018-10-02T06:31:59.157Z,4.35
2018-10-02T06:34:28.920Z,4.54
2018-10-02T06:36:59.614Z,4.71
2018-10-02T06:39:31.141Z,4.84
2018-10-02T06:42:07.505Z,4.95
2018-10-02T06:44:37.459Z,5.04
2018-10-02T06:47:09.499Z,5.13
2018-10-02T06:49:40.027Z,5.19
2018-10-02T06:52:14.955Z,5.17
2018-10-02T06:54:44.821Z,5.18
2018-10-02T06:57:14.617Z,5.29
2018-10-02T06:59:45.888Z,5.26
2018-10-02T07:02:15.952Z,5.27
2018-10-02T07:04:45.760Z,5.41
2018-10-02T07:07:16.469Z,5.63
2018-10-02T07:09:46.205Z,5.91
2018-10-02T07:12:16.128Z,6.10
2018-10-02T07:14:46.180Z,6.31
2018-10-02T07:17:16.033Z,6.52
2018-10-02T07:19:46.449Z,6.71
2018-10-02T07:22:16.649Z,6.98
2018-10-02T07:24:46.799Z,7.06
2018-10-02T07:27:16.968Z,7.11
2018-10-02T07:29:46.801Z,7.20
2018-10-02T07:32:17.467Z,7.34
2018-10-02T07:34:48.211Z,7.58
2018-10-02T07:39:56.980Z,7.84
2018-10-02T07:42:31.946Z,8.17
2018-10-02T07:45:04.663Z,8.35
2018-10-02T07:47:36.496Z,8.62
2018-10-02T07:50:22.412Z,8.94
2018-10-02T07:52:55.611Z,9.09
2018-10-02T07:55:25.673Z,9.03
2018-10-02T07:57:56.349Z,9.05
2018-10-02T08:00:29.759Z,9.30
2018-10-02T08:02:59.882Z,9.54
2018-10-02T08:05:31.401Z,9.31
2018-10-02T08:08:02.409Z,9.17
2018-10-02T08:10:33.410Z,9.21
2018-10-02T08:13:04.702Z,9.22
2018-10-02T08:15:34.700Z,9.35
2018-10-02T08:18:04.909Z,9.47
2018-10-02T08:20:34.800Z,9.80
2018-10-02T08:23:05.250Z,9.96
2018-10-02T08:25:35.448Z,9.82
2018-10-02T08:28:05.776Z,10.15
2018-10-02T08:30:39.068Z,10.60
2018-10-02T08:33:09.662Z,10.71
2018-10-02T08:35:39.977Z,11.22
2018-10-02T08:38:21.435Z,11.43
2018-10-02T08:40:52.238Z,12.15
2018-10-02T08:43:30.052Z,11.80
2018-10-02T08:46:02.343Z,11.92
2018-10-02T08:48:34.653Z,12.45
2018-10-02T08:51:09.190Z,11.88
2018-10-02T08:53:40.635Z,11.16
2018-10-02T08:56:10.706Z,11.37
2018-10-02T08:58:43.728Z,11.38
2018-10-02T09:01:14.257Z,11.52
2018-10-02T09:03:44.427Z,11.20
2018-10-02T09:06:14.621Z,11.07
2018-10-02T09:08:44.575Z,11.14
2018-10-02T09:11:14.895Z,10.64
2018-10-02T09:13:46.867Z,10.82
2018-10-02T09:16:16.853Z,11.18
2018-10-02T09:18:46.746Z,11.68
2018-10-02T09:21:16.871Z,12.27
2018-10-02T09:23:47.351Z,12.22
2018-10-02T09:26:17.459Z,11.71
2018-10-02T09:28:47.488Z,11.58
2018-10-02T09:31:22.341Z,11.79
2018-10-02T09:36:43.271Z,12.04
2018-10-02T09:39:18.241Z,12.31
2018-10-02T09:41:53.219Z,12.46
2018-10-02T09:44:23.348Z,12.10
2018-10-02T09:46:53.706Z,12.07
2018-10-02T09:49:23.549Z,12.21
2018-10-02T09:51:53.893Z,11.94
2018-10-02T09:54:24.201Z,11.92
2018-10-02T09:56:54.290Z,11.30
2018-10-02T09:59:24.195Z,11.19
2018-10-02T10:02:03.995Z,11.00
2018-10-02T10:04:37.406Z,11.13
2018-10-02T10:07:10.425Z,11.09
2018-10-02T10:09:41.104Z,10.92
2018-10-02T10:12:11.171Z,10.89
2018-10-02T10:14:41.196Z,11.21
2018-10-02T10:17:11.488Z,11.35
2018-10-02T10:19:44.913Z,11.62
2018-10-02T10:22:15.139Z,11.66
2018-10-02T10:24:45.173Z,11.79
2018-10-02T10:27:15.759Z,11.60
2018-10-02T10:29:46.182Z,11.44
2018-10-02T10:32:16.794Z,11.41
2018-10-02T10:34:47.304Z,11.73
2018-10-02T10:37:18.270Z,11.81
2018-10-02T10:39:48.837Z,11.55
2018-10-02T10:42:19.314Z,11.60
2018-10-02T10:44:49.313Z,11.59
2018-10-02T10:47:19.627Z,11.34
2018-10-02T10:49:51.150Z,11.21
2018-10-02T10:52:23.942Z,11.23
2018-10-02T10:55:07.159Z,11.27
2018-10-02T10:57:50.393Z,11.38
2018-10-02T11:00:28.967Z,11.70
2018-10-02T11:03:00.270Z,11.91
2018-10-02T11:05:33.081Z,12.11
2018-10-02T11:08:04.324Z,12.23
2018-10-02T11:10:37.280Z,12.11
2018-10-02T11:13:10.618Z,12.24
2018-10-02T11:15:45.849Z,11.99
2018-10-02T11:18:17.543Z,12.13
2018-10-02T11:20:49.195Z,12.00
2018-10-02T11:23:20.064Z,11.92
2018-10-02T11:25:50.435Z,11.97
2018-10-02T11:28:21.928Z,11.85
2018-10-02T11:30:52.131Z,11.86
2018-10-02T11:33:23.412Z,11.90
2018-10-02T11:35:53.492Z,11.78
2018-10-02T11:38:23.636Z,11.96
2018-10-02T11:40:53.696Z,12.14
2018-10-02T11:43:23.859Z,12.13
2018-10-02T11:45:54.027Z,12.23
2018-10-02T11:48:24.312Z,12.21
2018-10-02T11:50:55.625Z,11.96
2018-10-02T11:53:26.682Z,12.08
2018-10-02T11:55:57.877Z,12.07
2018-10-02T11:58:29.644Z,12.32
2018-10-02T12:00:59.999Z,12.52
2018-10-02T12:03:33.083Z,12.43
2018-10-02T12:06:03.142Z,12.33
2018-10-02T12:08:34.747Z,12.26
2018-10-02T12:11:05.540Z,12.71
2018-10-02T12:13:35.812Z,12.93
2018-10-02T12:16:06.140Z,13.16
2018-10-02T12:18:39.349Z,12.84
2018-10-02T12:21:10.391Z,12.60
2018-10-02T12:23:40.614Z,12.54
2018-10-02T12:26:14.700Z,12.49
2018-10-02T12:28:44.828Z,12.49
2018-10-02T12:31:16.093Z,12.16
2018-10-02T12:33:48.365Z,12.14
2018-10-02T12:36:18.352Z,12.32
2018-10-02T12:38:48.475Z,12.45
2018-10-02T12:41:18.664Z,12.21
2018-10-02T12:43:48.857Z,12.16
2018-10-02T12:46:19.059Z,12.11
2018-10-02T12:48:49.236Z,12.29
2018-10-02T12:51:19.382Z,12.29
2018-10-02T12:53:49.720Z,12.04
2018-10-02T12:56:21.340Z,12.16
2018-10-02T12:58:51.192Z,12.36
2018-10-02T13:01:21.271Z,12.43
2018-10-02T13:03:52.628Z,12.36
2018-10-02T13:06:22.866Z,12.11
2018-10-02T13:08:52.784Z,12.21
2018-10-02T13:11:22.811Z,12.33
2018-10-02T13:13:55.516Z,12.16
2018-10-02T13:16:30.566Z,12.06
2018-10-02T13:19:00.967Z,11.97
2018-10-02T13:21:33.296Z,12.00
2018-10-02T13:24:07.741Z,12.00
2018-10-02T13:26:45.704Z,12.02
2018-10-02T13:29:16.158Z,12.07
2018-10-02T13:31:48.440Z,11.88
2018-10-02T13:34:18.982Z,11.72
2018-10-02T13:36:54.535Z,11.67
2018-10-02T13:39:26.770Z,11.64
2018-10-02T13:41:57.640Z,11.62
2018-10-02T13:44:30.558Z,11.62
2018-10-02T13:47:01.402Z,11.75
2018-10-02T13:49:31.532Z,11.76
2018-10-02T13:52:03.107Z,11.79
2018-10-02T13:54:33.560Z,11.70
2018-10-02T13:57:03.800Z,11.58
2018-10-02T13:59:34.591Z,11.58
2018-10-02T14:02:11.379Z,11.68
2018-10-02T14:04:42.395Z,11.75
2018-10-02T14:07:12.961Z,11.38
2018-10-02T14:09:48.157Z,11.37
2018-10-02T14:12:25.950Z,11.04
2018-10-02T14:14:56.677Z,10.96
2018-10-02T14:17:27.408Z,11.00
2018-10-02T14:19:58.338Z,10.86
2018-10-02T14:25:47.881Z,10.89
2018-10-02T14:28:20.256Z,10.82
2018-10-02T14:30:53.824Z,10.89
2018-10-02T14:33:24.793Z,10.87
2018-10-02T14:35:55.225Z,10.92
2018-10-02T14:38:25.648Z,10.84
2018-10-02T14:40:58.094Z,10.88
2018-10-02T14:43:29.932Z,10.93
2018-10-02T14:46:00.584Z,10.89
2018-10-02T14:48:31.200Z,10.87
2018-10-02T14:51:02.811Z,10.85
2018-10-02T14:53:34.904Z,10.86
2018-10-02T14:56:11.273Z,10.82
2018-10-02T15:01:22.896Z,10.86
2018-10-02T15:06:36.966Z,10.90
2018-10-02T15:09:10.833Z,10.93
2018-10-02T15:11:49.892Z,10.96
2018-10-02T15:14:27.295Z,10.88
2018-10-02T15:16:58.291Z,10.93
2018-10-02T15:19:30.783Z,10.90
2018-10-02T15:22:06.099Z,10.87
2018-10-02T15:24:37.595Z,10.84
2018-10-02T15:27:08.047Z,10.87
2018-10-02T15:29:44.418Z,10.91
2018-10-02T15:32:17.470Z,10.95
2018-10-02T15:34:53.100Z,10.97
2018-10-02T15:37:24.773Z,10.99
2018-10-02T15:39:55.652Z,11.00
2018-10-02T15:42:28.384Z,11.00
2018-10-02T15:45:01.133Z,11.07
2018-10-02T15:47:36.074Z,11.03
2018-10-02T15:52:55.202Z,11.10
2018-10-02T15:55:27.187Z,11.09
2018-10-02T15:58:01.037Z,11.12
2018-10-02T16:03:11.860Z,11.14
2018-10-02T16:05:43.931Z,11.18
2018-10-02T16:08:17.079Z,11.28
2018-10-02T16:10:55.824Z,11.24
2018-10-02T16:13:26.686Z,11.24
2018-10-02T16:16:00.954Z,11.24
2018-10-02T16:18:34.447Z,11.22
2018-10-02T16:21:07.298Z,11.27
2018-10-02T16:23:42.454Z,11.27
2018-10-02T16:26:16.136Z,11.29
2018-10-02T16:31:32.985Z,11.26
2018-10-02T16:34:04.365Z,11.32
2018-10-02T16:36:40.590Z,11.29
2018-10-02T16:39:15.307Z,11.30
2018-10-02T16:41:46.524Z,11.28
2018-10-02T16:44:23.143Z,11.28
2018-10-02T16:47:00.124Z,11.19
2018-10-02T16:49:37.371Z,11.23
2018-10-02T16:52:13.905Z,11.23
2018-10-02T16:54:46.144Z,11.19
2018-10-02T17:00:19.759Z,11.18
2018-10-02T17:02:53.634Z,11.21
2018-10-02T17:05:32.679Z,11.15
2018-10-02T17:08:05.454Z,11.14
2018-10-02T17:10:46.173Z,11.15
2018-10-02T17:13:20.466Z,11.18
2018-10-02T17:15:51.971Z,11.17
2018-10-02T17:18:26.588Z,11.20
2018-10-02T17:20:59.149Z,11.17
2018-10-02T17:23:33.101Z,11.21
2018-10-02T17:26:05.249Z,11.23
2018-10-02T17:28:38.493Z,11.19
2018-10-02T17:31:16.994Z,11.21
2018-10-02T17:33:59.297Z,11.21
2018-10-02T17:36:33.490Z,11.21
2018-10-02T17:39:14.352Z,11.23
2018-10-02T17:41:52.110Z,11.19
2018-10-02T17:47:48.114Z,11.15
2018-10-02T18:05:42.293Z,11.09
2018-10-02T18:08:57.735Z,11.14
2018-10-02T18:11:31.893Z,11.08
2018-10-02T18:14:12.494Z,11.06
2018-10-02T18:16:52.204Z,11.06
2018-10-02T18:19:33.481Z,11.01
2018-10-02T18:25:25.755Z,10.91
2018-10-02T18:29:37.366Z,10.88
2018-10-02T18:38:53.446Z,10.79
2018-10-02T18:41:42.344Z,10.88
2018-10-02T18:47:08.787Z,10.85
2018-10-02T18:49:53.808Z,10.83
2018-10-02T18:55:09.224Z,10.73
2018-10-02T18:57:56.959Z,10.66
